Time;durP1;ratioP1;P1;durP2;ratioP2;P2;SDS_P1;SDS_P2;PMS_P1;PMS_P2;Temp;Humidity;BMP_temperature;BMP_pressure;BME280_temperature;BME280_humidity;BME280_pressure;Samples;Min_cycle;Max_cycle;Signal;HPM_P1;HPM_P2
2022/07/20 00:00:00;;;;;;;5.07;2.45;;;25.40;46.40;;;;;;2085008;28;20027;-67
2022/07/20 00:01:02;;;;;;;4.85;3.05;;;25.50;46.20;;;;;;2085778;28;20107;-67
2022/07/20 00:02:03;;;;;;;4.88;3.00;;;25.40;45.90;;;;;;2085655;28;20033;-67
2022/07/20 00:03:09;;;;;;;5.22;2.97;;;25.50;45.90;;;;;;2088824;28;20028;-67
2022/07/20 00:04:09;;;;;;;6.95;3.20;;;25.50;45.60;;;;;;2087668;28;20527;-67
2022/07/20 00:05:10;;;;;;;4.68;3.17;;;25.50;46.00;;;;;;2086280;28;20373;-67
2022/07/20 00:06:11;;;;;;;3.45;3.15;;;25.50;46.00;;;;;;2084399;28;20032;-67
2022/07/20 00:07:12;;;;;;;2.92;2.65;;;25.50;45.70;;;;;;2086110;28;20021;-67
2022/07/20 00:08:12;;;;;;;4.72;2.78;;;25.50;45.60;;;;;;2084406;28;20021;-67
2022/07/20 00:11:51;;;;;;;3.67;2.95;;;25.50;45.40;;;;;;2085277;28;20021;-67
2022/07/20 00:12:52;;;;;;;3.33;2.63;;;25.50;45.50;;;;;;2083004;28;20026;-67
2022/07/20 00:13:55;;;;;;;6.93;3.13;;;25.50;45.40;;;;;;2083669;28;20053;-67
2022/07/20 00:14:56;;;;;;;3.30;3.00;;;25.60;45.30;;;;;;2083809;28;20028;-67
2022/07/20 00:15:56;;;;;;;3.83;2.70;;;25.50;45.10;;;;;;2084404;28;20028;-67
2022/07/20 00:16:57;;;;;;;6.43;3.55;;;25.60;45.00;;;;;;2085584;28;20025;-67
2022/07/20 00:17:58;;;;;;;4.28;2.78;;;25.60;44.90;;;;;;2085432;28;20071;-67
2022/07/20 00:18:59;;;;;;;3.35;3.00;;;25.60;44.90;;;;;;2083341;28;20030;-67
2022/07/20 00:19:59;;;;;;;7.80;3.20;;;25.60;44.50;;;;;;2087647;28;20013;-67
2022/07/20 00:21:00;;;;;;;3.90;2.67;;;25.60;44.50;;;;;;2086716;28;20018;-67
2022/07/20 00:22:00;;;;;;;5.15;3.15;;;25.70;44.30;;;;;;2085116;28;20017;-67
2022/07/20 00:23:02;;;;;;;4.93;3.03;;;25.70;44.30;;;;;;2084286;28;20021;-67
2022/07/20 00:24:03;;;;;;;5.05;2.72;;;25.70;44.10;;;;;;2083944;28;20017;-67
2022/07/20 00:25:04;;;;;;;4.13;2.60;;;25.70;44.20;;;;;;2085997;28;20071;-67
2022/07/20 00:26:05;;;;;;;4.85;2.85;;;25.70;44.10;;;;;;2082342;28;20554;-67
2022/07/20 00:27:06;;;;;;;4.65;3.15;;;25.80;44.00;;;;;;2085079;28;20017;-67
2022/07/20 00:28:06;;;;;;;5.22;3.08;;;25.80;43.90;;;;;;2085525;28;20051;-67
2022/07/20 00:29:07;;;;;;;6.45;3.00;;;25.80;43.80;;;;;;2083892;28;20496;-67
2022/07/20 00:30:09;;;;;;;5.10;3.08;;;25.80;43.80;;;;;;2085911;28;20452;-67
2022/07/20 00:31:09;;;;;;;5.35;3.03;;;25.80;43.70;;;;;;2085061;28;20032;-67
2022/07/20 00:32:10;;;;;;;3.15;2.70;;;25.90;43.70;;;;;;2083892;28;20052;-67
2022/07/20 00:33:10;;;;;;;3.60;2.80;;;25.90;43.60;;;;;;2082531;28;20067;-67
2022/07/20 00:34:11;;;;;;;3.88;2.30;;;25.90;43.60;;;;;;2084806;28;20025;-67
2022/07/20 00:35:14;;;;;;;3.10;2.88;;;25.90;43.50;;;;;;2086323;28;20024;-67
2022/07/20 00:36:16;;;;;;;4.88;3.00;;;25.90;43.50;;;;;;2087137;28;20100;-67
2022/07/20 00:37:17;;;;;;;3.53;2.83;;;25.90;43.40;;;;;;2082165;28;20026;-67
2022/07/20 00:38:18;;;;;;;5.22;2.92;;;25.90;43.40;;;;;;2085841;28;20113;-67
2022/07/20 00:39:18;;;;;;;5.30;2.75;;;25.90;43.40;;;;;;2084196;28;20032;-67
2022/07/20 00:40:19;;;;;;;3.70;3.03;;;25.90;43.20;;;;;;2084337;28;20021;-67
2022/07/20 00:41:19;;;;;;;4.10;2.78;;;25.90;43.30;;;;;;2084997;28;20032;-67
2022/07/20 00:42:20;;;;;;;3.25;2.95;;;25.90;43.10;;;;;;2086104;28;20032;-67
2022/07/20 00:43:21;;;;;;;4.10;2.88;;;26.00;43.20;;;;;;2082355;28;20037;-67
2022/07/20 00:44:21;;;;;;;4.10;2.83;;;26.00;43.50;;;;;;2085990;28;20076;-67
2022/07/20 00:45:22;;;;;;;3.38;2.97;;;26.00;43.10;;;;;;2083704;28;20022;-67
2022/07/20 00:46:22;;;;;;;4.28;3.13;;;26.00;43.10;;;;;;2086023;28;20400;-67
2022/07/20 00:47:23;;;;;;;3.55;2.85;;;26.00;42.90;;;;;;2084649;28;20022;-67
2022/07/20 00:48:24;;;;;;;4.57;2.90;;;26.00;42.90;;;;;;2084781;28;20060;-67
2022/07/20 00:49:24;;;;;;;6.05;3.10;;;26.00;42.70;;;;;;2086065;28;20021;-67
2022/07/20 00:50:25;;;;;;;4.53;2.88;;;26.00;42.80;;;;;;2080990;28;20481;-67
2022/07/20 00:51:26;;;;;;;4.07;2.92;;;26.10;42.80;;;;;;2090188;28;20020;-67
2022/07/20 00:52:27;;;;;;;3.83;2.85;;;26.10;42.70;;;;;;2085961;28;20024;-67
2022/07/20 00:53:27;;;;;;;5.15;3.13;;;26.10;42.80;;;;;;2084045;28;20377;-67
2022/07/20 00:54:28;;;;;;;4.22;2.95;;;26.10;42.60;;;;;;2083020;28;20095;-67
2022/07/20 00:55:29;;;;;;;4.93;2.90;;;26.10;42.60;;;;;;2085091;28;20094;-67
2022/07/20 00:56:30;;;;;;;4.15;2.72;;;26.10;42.60;;;;;;2085963;28;20052;-67
2022/07/20 00:57:31;;;;;;;3.60;2.70;;;26.10;42.60;;;;;;2082832;28;20029;-67
2022/07/20 00:58:31;;;;;;;3.78;2.90;;;26.10;42.50;;;;;;2082402;28;20025;-67
2022/07/20 00:59:32;;;;;;;7.45;2.95;;;26.10;42.60;;;;;;2088308;28;20030;-67
2022/07/20 01:00:33;;;;;;;4.57;3.17;;;26.10;42.60;;;;;;2086397;28;20066;-67
2022/07/20 01:01:34;;;;;;;3.92;2.85;;;26.10;42.40;;;;;;2088272;28;20045;-67
2022/07/20 01:02:35;;;;;;;4.05;3.20;;;26.10;42.40;;;;;;2086331;28;20408;-67
2022/07/20 01:03:36;;;;;;;3.85;3.00;;;26.10;42.50;;;;;;2087137;28;20025;-67
2022/07/20 01:04:37;;;;;;;5.30;2.97;;;26.10;42.50;;;;;;2085200;28;20032;-67
2022/07/20 01:05:38;;;;;;;6.55;2.60;;;26.10;42.40;;;;;;2086843;28;20393;-68
2022/07/20 01:06:38;;;;;;;3.20;2.90;;;26.10;43.00;;;;;;2083853;28;20025;-67
2022/07/20 01:07:44;;;;;;;4.40;2.67;;;26.10;42.40;;;;;;2087073;28;20032;-67
2022/07/20 01:08:44;;;;;;;3.33;3.00;;;26.10;42.50;;;;;;2086298;28;20025;-67
2022/07/20 01:09:45;;;;;;;3.40;2.92;;;26.10;42.40;;;;;;2087712;28;20043;-67
2022/07/20 01:10:47;;;;;;;3.58;2.90;;;26.10;42.50;;;;;;2087574;28;20550;-67
2022/07/20 01:11:47;;;;;;;7.53;3.00;;;26.10;42.50;;;;;;2084159;28;20030;-67
2022/07/20 01:12:49;;;;;;;6.72;2.97;;;26.10;42.50;;;;;;2085271;28;20022;-67
2022/07/20 01:13:50;;;;;;;4.07;3.00;;;26.10;42.40;;;;;;2082974;28;20021;-67
2022/07/20 01:14:54;;;;;;;4.35;2.90;;;26.10;42.50;;;;;;2084152;28;20032;-67
2022/07/20 01:15:55;;;;;;;4.35;2.67;;;26.10;42.50;;;;;;2084675;28;20013;-67
2022/07/20 01:16:56;;;;;;;5.20;2.83;;;26.00;42.40;;;;;;2087492;28;20087;-67
2022/07/20 01:17:56;;;;;;;4.90;2.95;;;26.10;42.50;;;;;;2084620;28;20021;-67
2022/07/20 01:18:57;;;;;;;4.32;2.65;;;26.10;42.40;;;;;;2086010;28;20023;-67
2022/07/20 01:19:58;;;;;;;2.70;2.47;;;26.00;42.50;;;;;;2083761;28;20057;-67
2022/07/20 01:21:01;;;;;;;3.78;2.50;;;26.10;42.60;;;;;;2084289;28;20074;-67
2022/07/20 01:22:01;;;;;;;5.53;2.63;;;26.00;42.40;;;;;;2087897;28;20021;-67
2022/07/20 01:23:02;;;;;;;6.10;2.80;;;26.00;42.50;;;;;;2084059;28;20018;-67
2022/07/20 01:24:04;;;;;;;3.63;2.85;;;26.00;42.50;;;;;;2086849;28;20515;-67
2022/07/20 01:25:04;;;;;;;2.85;2.55;;;26.00;42.40;;;;;;2086836;28;20048;-67
2022/07/20 01:26:05;;;;;;;4.85;2.72;;;26.00;42.60;;;;;;2084873;28;20021;-67
2022/07/20 01:27:06;;;;;;;3.63;2.90;;;26.00;42.60;;;;;;2083849;28;20035;-67
2022/07/20 01:28:23;;;;;;;3.45;2.33;;;25.90;42.50;;;;;;2088929;28;20413;-67
2022/07/20 01:29:23;;;;;;;5.00;2.47;;;26.00;42.70;;;;;;2081528;28;20034;-67
2022/07/20 01:30:24;;;;;;;2.83;2.53;;;25.90;42.50;;;;;;2083437;28;20105;-67
2022/07/20 01:31:25;;;;;;;4.00;2.42;;;25.90;42.50;;;;;;2084752;28;20080;-67
2022/07/20 01:32:25;;;;;;;6.68;2.80;;;25.90;42.50;;;;;;2082237;28;20500;-67
2022/07/20 01:33:26;;;;;;;5.07;2.42;;;25.90;42.70;;;;;;2085116;28;20013;-67
2022/07/20 01:34:26;;;;;;;3.35;2.53;;;25.90;42.70;;;;;;2083844;28;20092;-67
2022/07/20 01:35:27;;;;;;;4.53;2.75;;;25.90;42.90;;;;;;2083672;28;20978;-67
2022/07/20 01:36:28;;;;;;;2.72;2.20;;;25.90;43.00;;;;;;2086747;28;20044;-67
2022/07/20 01:37:29;;;;;;;4.22;2.70;;;25.90;43.00;;;;;;2085029;28;20444;-67
2022/07/20 01:38:30;;;;;;;6.38;2.67;;;25.90;43.00;;;;;;2084793;28;20037;-67
2022/07/20 01:39:31;;;;;;;4.78;2.65;;;25.90;42.70;;;;;;2086233;28;20021;-67
2022/07/20 01:40:32;;;;;;;6.28;3.22;;;25.90;42.70;;;;;;2085693;28;20428;-67
2022/07/20 01:41:32;;;;;;;4.20;2.47;;;25.90;42.70;;;;;;2088148;28;20032;-67
2022/07/20 01:42:33;;;;;;;8.15;2.72;;;25.90;42.60;;;;;;2084961;28;20027;-67
2022/07/20 01:43:34;;;;;;;4.88;2.65;;;25.80;42.50;;;;;;2082733;28;20032;-67
2022/07/20 01:44:34;;;;;;;3.15;2.85;;;25.80;42.60;;;;;;2083835;28;20055;-67
2022/07/20 01:45:35;;;;;;;3.17;2.60;;;25.80;42.50;;;;;;2081694;28;20025;-67
2022/07/20 01:46:36;;;;;;;4.93;3.05;;;25.80;42.60;;;;;;2084977;28;20040;-67
2022/07/20 01:47:36;;;;;;;4.18;2.67;;;25.80;42.90;;;;;;2085250;28;20027;-67
2022/07/20 01:48:37;;;;;;;2.83;2.35;;;25.80;43.20;;;;;;2085806;28;20049;-67
2022/07/20 01:49:38;;;;;;;5.93;2.58;;;25.80;43.10;;;;;;2082218;28;20025;-67
2022/07/20 01:50:39;;;;;;;4.18;2.70;;;25.80;42.70;;;;;;2084428;28;20032;-67
2022/07/20 01:51:39;;;;;;;3.50;2.58;;;25.80;42.60;;;;;;2085212;28;20127;-67
2022/07/20 01:52:40;;;;;;;7.22;2.70;;;25.80;42.50;;;;;;2084801;28;20059;-67
2022/07/20 01:53:41;;;;;;;4.03;2.70;;;25.80;42.50;;;;;;2084967;28;20540;-67
2022/07/20 01:54:41;;;;;;;3.65;2.58;;;25.80;42.50;;;;;;2083714;28;20036;-67
2022/07/20 01:55:42;;;;;;;3.30;2.67;;;25.80;42.50;;;;;;2086199;28;20014;-67
2022/07/20 01:56:43;;;;;;;4.95;2.80;;;25.80;42.50;;;;;;2086133;28;20074;-67
2022/07/20 01:57:44;;;;;;;4.20;2.50;;;25.80;42.60;;;;;;2085564;28;20025;-67
2022/07/20 01:58:44;;;;;;;4.57;2.55;;;25.80;42.70;;;;;;2085179;28;20025;-67
2022/07/20 01:59:45;;;;;;;7.45;2.65;;;25.80;42.80;;;;;;2086093;28;20040;-67
2022/07/20 02:00:46;;;;;;;6.97;2.67;;;25.70;42.70;;;;;;2082707;28;20017;-67
2022/07/20 02:01:47;;;;;;;3.63;2.58;;;25.80;42.70;;;;;;2086971;28;20484;-67
2022/07/20 02:02:48;;;;;;;3.53;2.85;;;25.80;42.70;;;;;;2083484;28;20479;-67
2022/07/20 02:03:49;;;;;;;4.68;3.03;;;25.70;42.70;;;;;;2082847;28;20071;-67
2022/07/20 02:04:49;;;;;;;4.68;3.00;;;25.70;42.80;;;;;;2083355;28;20028;-67
2022/07/20 02:05:50;;;;;;;5.70;3.10;;;25.70;42.80;;;;;;2084160;28;20108;-67
2022/07/20 02:06:50;;;;;;;5.00;2.70;;;25.70;43.10;;;;;;2084934;28;20031;-67
2022/07/20 02:07:51;;;;;;;3.35;2.92;;;25.70;43.80;;;;;;2084385;28;20021;-67
2022/07/20 02:08:52;;;;;;;3.22;2.55;;;25.70;43.80;;;;;;2085780;28;20017;-67
2022/07/20 02:09:52;;;;;;;3.92;2.50;;;25.70;43.60;;;;;;2085803;28;20017;-67
2022/07/20 02:10:53;;;;;;;6.07;2.83;;;25.70;44.20;;;;;;2084287;28;20021;-67
2022/07/20 02:11:53;;;;;;;3.05;2.42;;;25.70;44.00;;;;;;2083977;28;20024;-67
2022/07/20 02:12:54;;;;;;;4.90;2.58;;;25.70;43.70;;;;;;2085012;28;20037;-67
2022/07/20 02:13:55;;;;;;;4.28;2.50;;;25.60;43.90;;;;;;2082965;28;20013;-67
2022/07/20 02:14:55;;;;;;;4.53;2.90;;;25.60;43.70;;;;;;2086985;28;20021;-67
2022/07/20 02:17:15;;;;;;;3.45;2.40;;;25.60;43.80;;;;;;2083677;28;20049;-67
2022/07/20 02:18:16;;;;;;;5.88;2.88;;;25.60;45.40;;;;;;2082116;28;20021;-67
2022/07/20 02:19:16;;;;;;;3.63;2.63;;;25.60;46.50;;;;;;2084630;28;20021;-67
2022/07/20 02:20:17;;;;;;;3.92;2.70;;;25.60;46.50;;;;;;2085101;28;20021;-67
2022/07/20 02:21:19;;;;;;;3.22;2.70;;;25.60;46.70;;;;;;2085488;28;20049;-67
2022/07/20 02:22:20;;;;;;;3.38;2.60;;;25.50;46.40;;;;;;2083889;28;20021;-67
2022/07/20 02:23:20;;;;;;;4.72;3.05;;;25.50;46.90;;;;;;2084000;28;20048;-67
2022/07/20 02:24:21;;;;;;;3.53;2.88;;;25.50;46.90;;;;;;2083784;28;20478;-67
2022/07/20 02:25:22;;;;;;;8.07;3.17;;;25.50;46.90;;;;;;2081403;28;20523;-67
2022/07/20 02:26:23;;;;;;;3.35;2.83;;;25.50;47.00;;;;;;2085576;28;20033;-67
2022/07/20 02:27:24;;;;;;;3.22;2.78;;;25.50;46.40;;;;;;2086011;28;20013;-67
2022/07/20 02:28:24;;;;;;;3.22;2.40;;;25.40;46.20;;;;;;2086768;28;20024;-67
2022/07/20 02:29:25;;;;;;;5.05;2.85;;;25.40;45.70;;;;;;2087037;28;20032;-68
2022/07/20 02:30:26;;;;;;;3.28;2.97;;;25.40;45.60;;;;;;2082865;28;20056;-67
2022/07/20 02:31:26;;;;;;;4.20;2.80;;;25.40;46.10;;;;;;2087736;28;20017;-67
2022/07/20 02:32:27;;;;;;;3.03;2.53;;;25.30;46.40;;;;;;2081659;28;20025;-67
2022/07/20 02:33:27;;;;;;;6.15;3.10;;;25.30;46.30;;;;;;2080123;28;20044;-67
2022/07/20 02:34:28;;;;;;;3.80;2.90;;;25.30;46.10;;;;;;2084878;28;20032;-67
2022/07/20 02:35:29;;;;;;;4.00;2.80;;;25.20;46.50;;;;;;2086272;28;20052;-67
2022/07/20 02:36:30;;;;;;;3.40;2.45;;;25.20;45.90;;;;;;2084903;28;20021;-67
2022/07/20 02:37:30;;;;;;;4.28;2.78;;;25.20;46.40;;;;;;2085894;28;20481;-67
2022/07/20 02:38:31;;;;;;;3.08;2.78;;;25.20;46.40;;;;;;2083751;28;20025;-67
2022/07/20 02:39:32;;;;;;;3.03;2.60;;;25.20;46.70;;;;;;2085008;28;20028;-67
2022/07/20 02:40:32;;;;;;;3.10;2.60;;;25.10;46.80;;;;;;2082759;28;20028;-67
2022/07/20 02:41:34;;;;;;;2.90;2.63;;;25.10;47.30;;;;;;2084482;28;20112;-67
2022/07/20 02:42:35;;;;;;;4.57;2.75;;;25.10;47.80;;;;;;2086705;28;20036;-67
2022/07/20 02:43:36;;;;;;;4.03;2.90;;;25.10;47.70;;;;;;2089338;28;20485;-67
2022/07/20 02:44:37;;;;;;;4.25;2.63;;;25.00;48.00;;;;;;2086530;28;20040;-67
2022/07/20 02:45:37;;;;;;;5.93;3.03;;;25.00;47.60;;;;;;2086550;28;20021;-67
2022/07/20 02:46:39;;;;;;;3.70;2.65;;;25.00;48.00;;;;;;2081187;28;20025;-67
2022/07/20 02:47:43;;;;;;;3.50;2.78;;;25.00;48.00;;;;;;2084305;28;20032;-67
2022/07/20 02:48:44;;;;;;;3.90;2.78;;;25.00;49.00;;;;;;2087528;28;20040;-67
2022/07/20 02:49:45;;;;;;;4.05;3.00;;;25.00;49.00;;;;;;2084856;28;20098;-67
2022/07/20 02:50:45;;;;;;;4.10;2.67;;;25.00;49.00;;;;;;2086004;28;20013;-67
2022/07/20 02:51:46;;;;;;;3.08;2.58;;;25.00;49.30;;;;;;2087635;28;20028;-67
2022/07/20 02:52:46;;;;;;;4.68;2.80;;;24.90;49.10;;;;;;2085633;28;20044;-67
2022/07/20 02:53:47;;;;;;;4.45;2.70;;;24.90;48.90;;;;;;2082869;28;20025;-67
2022/07/20 02:54:47;;;;;;;3.10;2.80;;;24.90;49.00;;;;;;2086636;28;20028;-67
2022/07/20 02:55:48;;;;;;;3.42;2.72;;;24.90;49.90;;;;;;2085414;28;20032;-67
2022/07/20 02:56:49;;;;;;;4.35;2.72;;;24.80;50.80;;;;;;2083488;28;20460;-67
2022/07/20 02:57:49;;;;;;;2.85;2.47;;;24.80;50.70;;;;;;2086216;28;20021;-67
2022/07/20 02:58:50;;;;;;;4.22;2.65;;;24.80;50.40;;;;;;2086416;28;20048;-67
2022/07/20 02:59:51;;;;;;;3.50;2.72;;;24.70;50.40;;;;;;2085935;28;20047;-67
2022/07/20 03:00:51;;;;;;;3.65;2.92;;;24.70;50.10;;;;;;2086802;28;20436;-67
2022/07/20 03:01:52;;;;;;;5.90;3.00;;;24.70;50.10;;;;;;2086257;28;20018;-67
2022/07/20 03:02:53;;;;;;;5.05;2.92;;;24.70;50.30;;;;;;2085062;28;20033;-67
2022/07/20 03:03:54;;;;;;;6.18;2.67;;;24.60;50.90;;;;;;2086570;28;20078;-67
2022/07/20 03:04:54;;;;;;;6.63;2.95;;;24.60;51.40;;;;;;2081367;28;20104;-67
2022/07/20 03:05:55;;;;;;;4.05;2.95;;;24.60;51.70;;;;;;2086609;28;20369;-67
2022/07/20 03:06:55;;;;;;;2.85;2.65;;;24.50;51.30;;;;;;2086853;28;20761;-67
2022/07/20 03:07:56;;;;;;;8.43;3.05;;;24.50;51.30;;;;;;2086958;28;20036;-67
2022/07/20 03:08:57;;;;;;;5.55;3.00;;;24.40;51.60;;;;;;2084768;28;20079;-67
2022/07/20 03:09:57;;;;;;;2.85;2.50;;;24.40;51.90;;;;;;2086031;28;20021;-67
2022/07/20 03:10:58;;;;;;;5.07;3.10;;;24.40;51.90;;;;;;2085843;28;20040;-68
2022/07/20 03:11:58;;;;;;;4.03;2.80;;;24.40;51.90;;;;;;2086524;28;20404;-68
2022/07/20 03:12:59;;;;;;;7.25;3.03;;;24.30;51.90;;;;;;2086963;28;20068;-67
2022/07/20 03:14:00;;;;;;;3.83;2.97;;;24.30;51.50;;;;;;2087377;28;20060;-67
2022/07/20 03:15:01;;;;;;;3.22;2.75;;;24.30;51.40;;;;;;2087784;28;20392;-67
2022/07/20 03:16:02;;;;;;;4.55;3.00;;;24.20;51.20;;;;;;2085637;28;20031;-67
2022/07/20 03:17:03;;;;;;;5.50;2.78;;;24.20;51.40;;;;;;2087515;28;20738;-67
2022/07/20 03:18:03;;;;;;;3.33;2.60;;;24.10;51.50;;;;;;2085486;28;20104;-67
2022/07/20 03:19:04;;;;;;;4.05;2.90;;;24.10;51.70;;;;;;2085541;28;20024;-67
2022/07/20 03:20:05;;;;;;;4.65;2.75;;;24.10;52.10;;;;;;2082958;28;20097;-68
2022/07/20 03:21:05;;;;;;;3.00;2.70;;;24.10;52.30;;;;;;2084278;28;20102;-68
2022/07/20 03:22:06;;;;;;;2.65;2.20;;;24.00;52.00;;;;;;2085726;28;20084;-68
2022/07/20 03:23:07;;;;;;;3.25;2.95;;;24.00;52.10;;;;;;2085726;28;20116;-67
2022/07/20 03:24:07;;;;;;;3.05;2.65;;;24.00;52.00;;;;;;2085050;28;20021;-67
2022/07/20 03:25:09;;;;;;;3.60;2.95;;;24.00;52.20;;;;;;2086244;28;20029;-67
2022/07/20 03:26:09;;;;;;;5.18;2.70;;;23.90;52.60;;;;;;2085699;28;20104;-68
2022/07/20 03:27:10;;;;;;;3.63;2.92;;;23.90;52.80;;;;;;2086735;28;20456;-68
2022/07/20 03:28:11;;;;;;;5.60;3.00;;;23.90;52.50;;;;;;2086028;28;20030;-68
2022/07/20 03:29:11;;;;;;;5.07;2.75;;;23.80;52.90;;;;;;2084809;28;20109;-68
2022/07/20 03:30:13;;;;;;;3.97;2.72;;;23.80;52.90;;;;;;2087040;28;20025;-68
2022/07/20 03:31:13;;;;;;;3.78;3.00;;;23.80;53.00;;;;;;2087113;28;20017;-67
2022/07/20 03:32:14;;;;;;;7.72;3.10;;;23.70;53.20;;;;;;2085931;28;20009;-68
2022/07/20 03:33:15;;;;;;;5.30;3.33;;;23.80;53.40;;;;;;2088791;28;20096;-67
2022/07/20 03:34:15;;;;;;;4.22;3.38;;;23.70;53.30;;;;;;2083555;28;20017;-68
2022/07/20 03:35:16;;;;;;;5.15;2.83;;;23.70;53.20;;;;;;2082179;28;20022;-67
2022/07/20 03:36:17;;;;;;;3.72;3.28;;;23.60;53.00;;;;;;2088025;28;20036;-67
2022/07/20 03:37:18;;;;;;;5.93;2.80;;;23.70;52.80;;;;;;2087449;28;20022;-68
2022/07/20 03:38:18;;;;;;;4.65;2.88;;;23.60;53.60;;;;;;2085918;28;20033;-68
2022/07/20 03:39:19;;;;;;;2.80;2.60;;;23.60;53.40;;;;;;2084731;28;20398;-68
2022/07/20 03:40:20;;;;;;;3.03;2.72;;;23.50;53.90;;;;;;2086290;28;20033;-68
2022/07/20 03:41:20;;;;;;;5.95;3.03;;;23.50;53.90;;;;;;2089026;28;20495;-68
2022/07/20 03:42:21;;;;;;;5.93;3.28;;;23.50;53.80;;;;;;2086320;28;20381;-68
2022/07/20 03:43:25;;;;;;;4.53;2.78;;;23.50;54.40;;;;;;2085879;28;20017;-67
2022/07/20 03:44:25;;;;;;;3.38;2.80;;;23.50;54.70;;;;;;2086383;28;20100;-68
2022/07/20 03:45:26;;;;;;;3.72;3.22;;;23.40;54.90;;;;;;2084099;28;20025;-67
2022/07/20 03:46:26;;;;;;;6.65;3.25;;;23.40;54.70;;;;;;2087040;28;20110;-67
2022/07/20 03:47:27;;;;;;;3.90;3.00;;;23.40;54.20;;;;;;2086696;28;20826;-67
2022/07/20 03:48:28;;;;;;;3.95;2.85;;;23.40;54.60;;;;;;2087494;28;20045;-68
2022/07/20 03:49:28;;;;;;;5.78;3.63;;;23.40;54.80;;;;;;2084496;28;20487;-68
2022/07/20 03:50:29;;;;;;;3.97;3.10;;;23.30;54.80;;;;;;2084214;28;20033;-68
2022/07/20 03:51:29;;;;;;;4.50;2.78;;;23.30;55.10;;;;;;2082482;28;20029;-68
2022/07/20 03:52:30;;;;;;;5.97;3.00;;;23.30;55.80;;;;;;2084439;28;20095;-68
2022/07/20 03:53:31;;;;;;;4.38;3.10;;;23.30;55.90;;;;;;2083720;28;20071;-68
2022/07/20 03:54:32;;;;;;;3.28;2.97;;;23.20;55.70;;;;;;2084329;28;20029;-68
2022/07/20 03:55:32;;;;;;;4.32;2.78;;;23.20;55.80;;;;;;2085526;28;20021;-68
2022/07/20 03:56:39;;;;;;;3.63;3.10;;;23.20;56.00;;;;;;2087922;28;20522;-68
2022/07/20 03:57:40;;;;;;;5.50;3.22;;;23.10;56.30;;;;;;2086062;28;20101;-68
2022/07/20 03:58:41;;;;;;;4.72;3.42;;;23.20;56.60;;;;;;2083663;28;20083;-68
2022/07/20 03:59:42;;;;;;;3.80;3.00;;;23.10;56.70;;;;;;2084397;28;20056;-68
2022/07/20 04:00:43;;;;;;;5.32;3.45;;;23.10;56.40;;;;;;2084295;28;20499;-68
2022/07/20 04:01:43;;;;;;;2.75;2.50;;;23.10;56.70;;;;;;2085014;28;20029;-68
2022/07/20 04:02:44;;;;;;;4.45;3.05;;;23.00;56.40;;;;;;2085001;28;20025;-68
2022/07/20 04:03:45;;;;;;;3.45;3.13;;;23.10;57.20;;;;;;2087227;28;20021;-68
2022/07/20 04:04:46;;;;;;;9.00;2.97;;;23.00;57.20;;;;;;2084748;28;20080;-68
2022/07/20 04:05:46;;;;;;;4.25;2.97;;;23.00;57.10;;;;;;2085892;28;20036;-68
2022/07/20 04:06:47;;;;;;;4.38;3.00;;;23.00;57.20;;;;;;2084009;28;20116;-67
2022/07/20 04:07:48;;;;;;;5.63;3.15;;;23.00;56.80;;;;;;2082246;28;20025;-67
2022/07/20 04:08:48;;;;;;;6.32;3.80;;;23.00;57.50;;;;;;2085682;28;20071;-68
2022/07/20 04:09:49;;;;;;;4.38;3.20;;;23.00;57.40;;;;;;2083885;28;20014;-68
2022/07/20 04:10:50;;;;;;;7.43;3.47;;;23.00;57.60;;;;;;2082524;28;20082;-68
2022/07/20 04:11:50;;;;;;;7.28;3.50;;;22.90;58.30;;;;;;2085474;28;20022;-68
2022/07/20 04:12:51;;;;;;;4.78;2.88;;;23.00;58.00;;;;;;2084318;28;20031;-68
2022/07/20 04:13:52;;;;;;;3.75;3.13;;;22.90;58.40;;;;;;2083564;28;20084;-68
2022/07/20 04:14:54;;;;;;;3.15;2.85;;;22.90;57.90;;;;;;2085346;28;20131;-68
2022/07/20 04:15:55;;;;;;;3.50;2.47;;;22.90;58.20;;;;;;2082468;28;20025;-68
2022/07/20 04:16:55;;;;;;;5.88;3.40;;;22.90;58.40;;;;;;2087234;28;20091;-68
2022/07/20 04:17:56;;;;;;;3.50;3.20;;;22.90;59.00;;;;;;2085424;28;20045;-68
2022/07/20 04:18:57;;;;;;;5.57;3.25;;;22.90;58.80;;;;;;2082865;28;20034;-68
2022/07/20 04:19:57;;;;;;;4.47;3.15;;;22.90;58.80;;;;;;2086241;28;20021;-68
2022/07/20 04:20:58;;;;;;;4.93;3.40;;;22.90;59.50;;;;;;2086043;28;20194;-67
2022/07/20 04:21:59;;;;;;;3.78;3.38;;;22.90;60.00;;;;;;2083232;28;20083;-67
2022/07/20 04:22:59;;;;;;;6.57;3.92;;;22.90;60.10;;;;;;2085368;28;20036;-68
2022/07/20 04:24:00;;;;;;;6.68;3.97;;;22.80;59.80;;;;;;2081851;28;20464;-67
2022/07/20 04:25:00;;;;;;;5.20;3.50;;;22.80;59.40;;;;;;2087392;28;20056;-67
2022/07/20 04:26:01;;;;;;;4.68;3.33;;;22.80;59.10;;;;;;2084493;28;20056;-67
2022/07/20 04:27:03;;;;;;;5.70;3.40;;;22.80;58.90;;;;;;2085029;28;20048;-67
2022/07/20 04:28:04;;;;;;;4.13;3.40;;;22.80;59.30;;;;;;2085006;28;20029;-68
2022/07/20 04:29:04;;;;;;;6.20;3.42;;;22.80;58.70;;;;;;2086341;28;20032;-68
2022/07/20 04:30:06;;;;;;;3.85;3.40;;;22.80;58.90;;;;;;2084900;28;20025;-68
2022/07/20 04:31:06;;;;;;;6.13;3.45;;;22.80;59.20;;;;;;2082943;28;20033;-68
2022/07/20 04:32:07;;;;;;;3.92;3.55;;;22.80;60.30;;;;;;2082517;28;20495;-68
2022/07/20 04:33:08;;;;;;;7.55;3.83;;;22.80;60.70;;;;;;2086210;28;20026;-68
2022/07/20 04:34:09;;;;;;;4.10;3.60;;;22.80;61.20;;;;;;2087121;28;20033;-68
2022/07/20 04:35:10;;;;;;;6.82;3.75;;;22.90;61.30;;;;;;2089178;28;20016;-68
2022/07/20 04:36:11;;;;;;;6.80;3.67;;;23.00;60.90;;;;;;2087989;28;20107;-68
2022/07/20 04:37:12;;;;;;;8.10;3.13;;;23.20;60.80;;;;;;2084246;28;20070;-68
2022/07/20 04:38:13;;;;;;;4.50;3.45;;;23.40;60.00;;;;;;2083259;28;20045;-68
2022/07/20 04:39:14;;;;;;;4.57;3.17;;;23.60;58.80;;;;;;2081744;28;20392;-68
2022/07/20 04:40:14;;;;;;;4.45;3.03;;;23.70;58.60;;;;;;2085918;28;20032;-68
2022/07/20 04:41:15;;;;;;;5.55;3.00;;;23.80;59.10;;;;;;2088381;28;20017;-68
2022/07/20 04:42:16;;;;;;;3.88;2.90;;;23.80;59.20;;;;;;2084527;28;20032;-68
2022/07/20 04:43:16;;;;;;;4.50;3.35;;;23.90;59.30;;;;;;2086165;28;20021;-68
2022/07/20 04:44:17;;;;;;;5.13;3.45;;;23.90;59.50;;;;;;2086889;28;20078;-68
2022/07/20 04:45:18;;;;;;;6.88;3.53;;;23.90;60.40;;;;;;2085083;28;20417;-68
2022/07/20 04:46:18;;;;;;;3.40;3.10;;;23.90;60.90;;;;;;2085747;28;20065;-68
2022/07/20 04:47:19;;;;;;;7.10;3.15;;;23.90;60.00;;;;;;2087298;28;20465;-68
2022/07/20 04:48:20;;;;;;;14.23;3.90;;;23.90;61.20;;;;;;2086671;28;20052;-68
2022/07/20 04:49:21;;;;;;;4.72;3.20;;;23.90;61.00;;;;;;2087423;28;20021;-68
2022/07/20 04:50:21;;;;;;;3.28;2.65;;;23.90;61.70;;;;;;2087151;28;20025;-68
2022/07/20 04:51:23;;;;;;;3.55;3.25;;;23.90;62.10;;;;;;2087295;28;20022;-68
2022/07/20 04:52:23;;;;;;;4.07;3.28;;;24.00;61.80;;;;;;2087759;28;20020;-68
2022/07/20 04:53:24;;;;;;;4.45;3.03;;;24.00;62.10;;;;;;2087642;28;20099;-68
2022/07/20 04:54:24;;;;;;;7.20;3.20;;;24.10;62.40;;;;;;2088141;28;20071;-68
2022/07/20 04:55:25;;;;;;;5.55;2.90;;;24.10;63.30;;;;;;2086886;28;20028;-68
2022/07/20 04:56:29;;;;;;;3.70;2.95;;;24.20;62.50;;;;;;2086486;28;20021;-68
2022/07/20 04:57:29;;;;;;;6.50;3.35;;;24.20;63.00;;;;;;2085277;28;20024;-68
2022/07/20 04:58:33;;;;;;;6.00;3.30;;;24.30;64.10;;;;;;2086905;28;20032;-68
2022/07/20 04:59:33;;;;;;;5.68;3.40;;;24.30;64.00;;;;;;2085279;28;20021;-68
2022/07/20 05:00:34;;;;;;;6.45;3.53;;;24.40;64.00;;;;;;2085139;28;20020;-68
2022/07/20 05:01:35;;;;;;;6.45;3.58;;;24.40;65.60;;;;;;2084866;28;20021;-67
2022/07/20 05:02:35;;;;;;;4.03;3.22;;;24.50;64.80;;;;;;2085969;28;20029;-68
2022/07/20 05:03:36;;;;;;;4.40;3.20;;;24.60;65.20;;;;;;2085752;28;20021;-68
2022/07/20 05:04:36;;;;;;;3.55;3.25;;;24.70;63.80;;;;;;2085631;28;20048;-67
2022/07/20 05:05:37;;;;;;;4.68;3.25;;;24.70;64.10;;;;;;2085635;28;20021;-68
2022/07/20 05:06:38;;;;;;;4.57;3.03;;;24.80;62.80;;;;;;2085983;28;20025;-67
2022/07/20 05:07:38;;;;;;;4.65;3.00;;;24.90;64.10;;;;;;2086944;28;20094;-68
2022/07/20 05:08:39;;;;;;;3.45;2.90;;;25.00;63.60;;;;;;2086123;28;20043;-67
2022/07/20 05:09:40;;;;;;;5.47;3.40;;;25.00;63.00;;;;;;2084194;28;20017;-68
2022/07/20 05:10:41;;;;;;;8.82;4.18;;;25.10;63.20;;;;;;2085240;28;20025;-68
2022/07/20 05:11:42;;;;;;;4.90;3.10;;;25.20;63.40;;;;;;2083566;28;20025;-67
2022/07/20 05:12:43;;;;;;;4.88;3.50;;;25.30;63.10;;;;;;2083458;28;20385;-67
2022/07/20 05:13:43;;;;;;;3.58;3.00;;;25.40;62.10;;;;;;2084335;28;20033;-68
2022/07/20 05:14:44;;;;;;;3.67;3.13;;;25.50;62.80;;;;;;2085167;28;20113;-67
2022/07/20 05:15:44;;;;;;;4.78;3.17;;;25.50;63.00;;;;;;2082844;28;20108;-68
2022/07/20 05:16:45;;;;;;;4.35;3.30;;;25.60;63.50;;;;;;2084063;28;20108;-67
2022/07/20 05:17:46;;;;;;;3.72;2.88;;;25.70;64.10;;;;;;2083517;28;20021;-67
2022/07/20 05:18:46;;;;;;;4.38;3.60;;;25.80;63.40;;;;;;2086137;28;20032;-67
2022/07/20 05:19:47;;;;;;;4.63;3.17;;;25.80;62.90;;;;;;2084806;28;20021;-68
2022/07/20 05:20:47;;;;;;;4.28;3.33;;;26.00;63.00;;;;;;2084953;28;20025;-67